Time;durP1;ratioP1;P1;durP2;ratioP2;P2;SDS_P1;SDS_P2;PMS_P1;PMS_P2;Temp;Humidity;BMP_temperature;BMP_pressure;BME280_temperature;BME280_humidity;BME280_pressure;Samples;Min_cycle;Max_cycle;Signal;HPM_P1;HPM_P2
2022/05/26 00:05:46;;;;;;;0.20;0.10;;;19.30;99.90;;;;;;26406629;22;20169;-76
2022/05/26 00:15:53;;;;;;;0.20;0.10;;;19.40;99.90;;;;;;26435604;22;20178;-78
2022/05/26 00:26:00;;;;;;;0.20;0.10;;;19.70;99.90;;;;;;26403986;22;20224;-77
2022/05/26 00:36:07;;;;;;;0.20;0.00;;;19.50;99.90;;;;;;26434085;22;20205;-75
2022/05/26 00:46:33;;;;;;;0.20;0.00;;;19.10;99.90;;;;;;26432525;22;20178;-76
2022/05/26 00:56:43;;;;;;;0.20;0.10;;;18.90;99.90;;;;;;26432016;22;20198;-76
2022/05/26 01:06:50;;;;;;;0.20;0.10;;;19.30;99.90;;;;;;26404380;22;20168;-78
2022/05/26 01:17:07;;;;;;;0.20;0.10;;;19.60;99.90;;;;;;26406029;22;20189;-79
2022/05/26 01:27:30;;;;;;;0.20;0.10;;;19.60;99.90;;;;;;26433340;22;20190;-79
2022/05/26 01:37:44;;;;;;;0.20;0.00;;;19.20;99.90;;;;;;26432601;22;20189;-77
2022/05/26 01:47:52;;;;;;;0.20;0.00;;;18.70;99.90;;;;;;26431387;22;20954;-78
2022/05/26 01:58:03;;;;;;;0.20;0.10;;;18.60;99.90;;;;;;26403533;22;20197;-77
2022/05/26 02:08:12;;;;;;;0.20;0.00;;;18.40;99.90;;;;;;26402840;22;20177;-78
2022/05/26 02:18:26;;;;;;;0.20;0.00;;;18.40;99.90;;;;;;26430943;22;20190;-78
2022/05/26 02:29:51;;;;;;;0.20;0.00;;;18.20;99.90;;;;;;26404206;22;20197;-79
2022/05/26 02:38:59;;;;;;;0.20;0.00;;;18.50;99.90;;;;;;26428091;22;20193;-79
2022/05/26 02:49:20;;;;;;;0.20;0.10;;;18.00;99.90;;;;;;26429836;22;20166;-78
2022/05/26 02:59:30;;;;;;;0.20;0.00;;;18.00;99.90;;;;;;26429557;22;20212;-77
2022/05/26 03:09:35;;;;;;;0.20;0.00;;;18.00;99.90;;;;;;26428177;22;20184;-78
2022/05/26 03:19:41;;;;;;;0.20;0.00;;;18.00;99.90;;;;;;26400005;22;20186;-76
2022/05/26 03:29:44;;;;;;;0.20;0.00;;;17.80;99.90;;;;;;26436868;22;20190;-75
2022/05/26 03:50:13;;;;;;;0.20;0.10;;;17.60;99.90;;;;;;26405599;22;20171;-77
2022/05/26 04:00:21;;;;;;;0.20;0.00;;;17.60;99.90;;;;;;26436540;22;20480;-77
2022/05/26 04:10:25;;;;;;;0.20;0.10;;;17.60;99.90;;;;;;26434185;22;20162;-77
2022/05/26 04:20:31;;;;;;;0.20;0.10;;;17.60;99.90;;;;;;26432855;22;21019;-77
2022/05/26 04:30:34;;;;;;;0.20;0.10;;;17.70;99.90;;;;;;26435588;22;20197;-77
2022/05/26 04:40:40;;;;;;;0.20;0.00;;;17.70;99.90;;;;;;26404877;22;20233;-76
2022/05/26 04:50:44;;;;;;;0.20;0.10;;;17.90;99.90;;;;;;26430254;22;20162;-77
2022/05/26 05:00:51;;;;;;;0.20;0.00;;;18.00;99.90;;;;;;26403346;22;20186;-74
2022/05/26 05:10:55;;;;;;;0.20;0.10;;;18.10;99.90;;;;;;26431739;22;20154;-75
2022/05/26 05:21:16;;;;;;;0.20;0.00;;;18.30;99.90;;;;;;26399704;22;20197;-76
2022/05/26 05:31:25;;;;;;;0.20;0.10;;;18.20;99.90;;;;;;26402096;22;20197;-76
2022/05/26 05:41:33;;;;;;;0.20;0.10;;;18.10;99.90;;;;;;26401477;22;20273;-76
2022/05/26 05:51:39;;;;;;;0.20;0.00;;;18.10;99.90;;;;;;26423724;22;20189;-76
2022/05/26 06:01:44;;;;;;;0.20;0.07;;;18.20;99.90;;;;;;26395887;22;20212;-76
2022/05/26 06:11:49;;;;;;;0.20;0.00;;;18.30;99.90;;;;;;26419973;22;20154;-77
2022/05/26 06:21:55;;;;;;;0.20;0.10;;;18.70;99.90;;;;;;26397856;22;20186;-76
2022/05/26 06:42:26;;;;;;;0.20;0.00;;;19.10;99.90;;;;;;26425292;22;20192;-76
2022/05/26 06:52:30;;;;;;;0.20;0.10;;;19.40;99.90;;;;;;26424069;22;20196;-75
2022/05/26 07:02:36;;;;;;;0.20;0.10;;;19.80;99.90;;;;;;26430283;22;20182;-77
2022/05/26 07:12:40;;;;;;;0.20;0.10;;;20.30;99.90;;;;;;26428710;22;20166;-75
2022/05/26 07:22:45;;;;;;;0.20;0.00;;;20.50;99.90;;;;;;26399850;22;20194;-72
2022/05/26 07:32:49;;;;;;;0.20;0.00;;;21.00;99.90;;;;;;26432048;22;20190;-74
2022/05/26 07:42:57;;;;;;;0.20;0.00;;;21.30;99.90;;;;;;26399453;22;20204;-73
2022/05/26 07:53:01;;;;;;;0.20;0.00;;;21.60;99.90;;;;;;26427467;22;20200;-73
2022/05/26 08:03:07;;;;;;;0.20;0.00;;;21.90;99.90;;;;;;26398367;22;20193;-73
2022/05/26 08:13:11;;;;;;;0.20;0.00;;;22.00;99.90;;;;;;26399407;22;20162;-73
2022/05/26 08:23:16;;;;;;;0.20;0.00;;;22.00;99.90;;;;;;26415664;22;20964;-74
2022/05/26 08:33:21;;;;;;;0.20;0.00;;;22.00;99.90;;;;;;26416858;22;20150;-77
2022/05/26 08:43:31;;;;;;;0.20;0.00;;;22.10;99.90;;;;;;26415229;22;20178;-72
2022/05/26 08:53:39;;;;;;;0.20;0.00;;;22.50;99.90;;;;;;26385574;22;20189;-71
2022/05/26 09:03:45;;;;;;;0.20;0.00;;;22.90;99.90;;;;;;26416344;22;20324;-72
2022/05/26 09:13:49;;;;;;;0.20;0.00;;;23.30;99.90;;;;;;26388214;22;20186;-74
2022/05/26 09:24:12;;;;;;;0.55;0.47;;;23.30;99.90;;;;;;26390750;22;20198;-73
2022/05/26 09:34:23;;;;;;;0.20;0.00;;;23.60;99.90;;;;;;26389460;22;20177;-74
2022/05/26 09:44:54;;;;;;;0.20;0.08;;;23.80;99.90;;;;;;26382617;22;20162;-74
2022/05/26 09:55:09;;;;;;;0.20;0.00;;;23.80;99.90;;;;;;26388287;22;20208;-69
2022/05/26 10:05:23;;;;;;;0.20;0.00;;;24.50;99.90;;;;;;26387817;22;20195;-74
2022/05/26 10:15:41;;;;;;;0.20;0.00;;;23.10;99.90;;;;;;26388327;22;20201;-75
2022/05/26 10:25:55;;;;;;;0.20;0.00;;;23.10;99.90;;;;;;26415718;22;20201;-73
2022/05/26 10:36:13;;;;;;;0.20;0.00;;;23.90;99.90;;;;;;26419266;22;20250;-73
2022/05/26 10:46:20;;;;;;;0.20;0.00;;;23.70;99.90;;;;;;26397001;22;20162;-73
2022/05/26 10:56:32;;;;;;;0.20;0.00;;;24.40;99.90;;;;;;26422655;22;20944;-74
2022/05/26 11:06:46;;;;;;;0.20;0.15;;;24.70;99.90;;;;;;26418587;22;20166;-69
2022/05/26 11:27:26;;;;;;;0.20;0.10;;;26.00;99.90;;;;;;26421111;22;20186;-71
2022/05/26 11:37:34;;;;;;;0.20;0.10;;;26.10;99.90;;;;;;26392764;22;20194;-67
2022/05/26 11:47:52;;;;;;;0.20;0.00;;;26.20;99.90;;;;;;26415796;22;20181;-73
2022/05/26 11:57:57;;;;;;;0.20;0.10;;;26.50;99.90;;;;;;26416484;22;20186;-73
2022/05/26 12:08:05;;;;;;;0.20;0.10;;;26.40;99.90;;;;;;26418439;22;20176;-74
2022/05/26 12:18:19;;;;;;;0.20;0.00;;;27.00;99.90;;;;;;26394319;22;20204;-74
2022/05/26 14:07:36;;;;;;;0.20;0.00;;;28.80;99.90;;;;;;26389161;22;20210;-77
2022/05/26 14:17:42;;;;;;;0.20;0.10;;;29.50;99.90;;;;;;26409865;22;20193;-75
2022/05/26 14:27:58;;;;;;;0.20;0.00;;;29.70;99.90;;;;;;26408694;22;20306;-76
2022/05/26 14:38:02;;;;;;;0.20;0.05;;;30.50;99.90;;;;;;26380139;22;20223;-76
2022/05/26 14:48:08;;;;;;;0.20;0.00;;;29.80;99.90;;;;;;26406857;22;20246;-75
2022/05/26 14:58:14;;;;;;;0.20;0.10;;;30.20;99.90;;;;;;26407772;22;20209;-76
2022/05/26 15:08:24;;;;;;;0.20;0.00;;;29.90;99.90;;;;;;26405176;22;20190;-71
2022/05/26 15:18:30;;;;;;;0.20;0.00;;;30.20;99.90;;;;;;26406858;22;20201;-74
2022/05/26 15:28:36;;;;;;;0.20;0.00;;;29.10;99.90;;;;;;26418709;22;20155;-75
2022/05/26 15:38:42;;;;;;;0.20;0.00;;;29.40;99.90;;;;;;26387570;22;20174;-76
2022/05/26 15:48:48;;;;;;;0.20;0.00;;;28.80;99.90;;;;;;26387035;22;20166;-78
2022/05/26 15:58:52;;;;;;;0.20;0.00;;;29.10;99.90;;;;;;26385380;22;20197;-77
2022/05/26 16:08:58;;;;;;;0.20;0.00;;;28.40;99.90;;;;;;26384620;22;20206;-76
2022/05/26 16:19:02;;;;;;;0.20;0.10;;;27.60;99.90;;;;;;26415597;22;20246;-74
2022/05/26 16:29:09;;;;;;;0.20;0.03;;;26.30;99.90;;;;;;26391867;22;20166;-76
2022/05/26 16:39:15;;;;;;;0.20;0.00;;;25.80;99.90;;;;;;26417275;22;20190;-77
2022/05/26 16:49:21;;;;;;;0.20;0.10;;;26.00;99.90;;;;;;26419301;22;20162;-75
2022/05/26 16:59:28;;;;;;;0.20;0.00;;;26.30;99.90;;;;;;26392582;22;20190;-74
2022/05/26 17:09:34;;;;;;;0.20;0.00;;;27.90;99.90;;;;;;26423636;22;20190;-77
2022/05/26 17:30:00;;;;;;;0.20;0.00;;;28.60;99.90;;;;;;26395445;22;20162;-77
2022/05/26 17:40:04;;;;;;;0.20;0.00;;;27.80;99.90;;;;;;26423125;22;20182;-77
2022/05/26 17:50:11;;;;;;;0.20;0.00;;;27.30;99.90;;;;;;26392633;22;20170;-76
2022/05/26 18:10:41;;;;;;;0.20;0.10;;;26.90;99.90;;;;;;26423344;22;20189;-80
2022/05/26 18:20:45;;;;;;;0.20;0.00;;;26.10;99.90;;;;;;26397971;22;20182;-78
2022/05/26 18:30:51;;;;;;;0.20;0.00;;;25.80;99.90;;;;;;26423706;22;20214;-79
2022/05/26 18:40:55;;;;;;;0.20;0.10;;;25.20;99.90;;;;;;26424120;22;20174;-78
2022/05/26 18:51:01;;;;;;;0.20;0.00;;;24.50;99.90;;;;;;26396707;22;20222;-82
2022/05/26 19:01:05;;;;;;;0.20;0.00;;;23.00;99.90;;;;;;26400476;22;20554;-77
2022/05/26 19:11:45;;;;;;;0.20;0.00;;;22.30;99.90;;;;;;26378290;22;20197;-73
2022/05/26 19:21:49;;;;;;;0.20;0.00;;;22.10;99.90;;;;;;26431737;22;20194;-73
2022/05/26 19:31:55;;;;;;;0.20;0.00;;;21.90;99.90;;;;;;26430371;22;20166;-74
2022/05/26 19:42:01;;;;;;;0.20;0.00;;;21.70;99.90;;;;;;26430064;22;20186;-74
2022/05/26 19:52:07;;;;;;;0.20;0.00;;;21.80;99.90;;;;;;26433368;22;20186;-74
2022/05/26 20:02:11;;;;;;;0.20;0.00;;;21.70;99.90;;;;;;26430454;22;20178;-74
2022/05/26 20:12:17;;;;;;;0.20;0.00;;;22.00;99.90;;;;;;26433464;22;20186;-74
2022/05/26 20:22:21;;;;;;;0.20;0.00;;;21.80;99.90;;;;;;26402057;22;20197;-74
2022/05/26 20:32:26;;;;;;;0.20;0.00;;;21.90;99.90;;;;;;26378315;22;20162;-74
2022/05/26 20:42:30;;;;;;;0.20;0.00;;;21.90;99.90;;;;;;26430360;22;20178;-76
2022/05/26 20:52:36;;;;;;;0.20;0.00;;;21.90;99.90;;;;;;26405517;22;20253;-76
2022/05/26 21:02:40;;;;;;;0.20;0.00;;;21.90;99.90;;;;;;26431150;22;20205;-77
2022/05/26 21:12:46;;;;;;;0.20;0.00;;;21.80;99.90;;;;;;26432145;22;20220;-77
2022/05/26 21:22:50;;;;;;;0.20;0.00;;;22.10;99.90;;;;;;26429694;22;20189;-74
2022/05/26 21:32:56;;;;;;;0.20;0.00;;;21.80;99.90;;;;;;26427670;22;20169;-75
2022/05/26 21:43:05;;;;;;;0.20;0.00;;;22.30;99.90;;;;;;26400806;22;20170;-76
2022/05/26 21:53:14;;;;;;;0.20;0.00;;;22.40;99.90;;;;;;26402502;22;20185;-77
2022/05/26 22:03:18;;;;;;;0.20;0.00;;;22.60;99.90;;;;;;26431015;22;20197;-74
2022/05/26 22:13:24;;;;;;;0.20;0.00;;;22.70;99.90;;;;;;26429554;22;20197;-73
2022/05/26 22:23:27;;;;;;;0.20;0.00;;;22.70;99.90;;;;;;26402651;22;20193;-75
2022/05/26 22:33:34;;;;;;;0.20;0.00;;;22.80;99.90;;;;;;26428935;22;20182;-76
2022/05/26 22:43:39;;;;;;;0.20;0.00;;;22.70;99.90;;;;;;26402096;22;20185;-77
2022/05/26 22:53:47;;;;;;;0.20;0.00;;;22.70;99.90;;;;;;26376840;22;20182;-78
2022/05/26 23:03:51;;;;;;;0.20;0.00;;;22.50;99.90;;;;;;26427339;22;20193;-77
2022/05/26 23:13:58;;;;;;;0.20;0.00;;;22.20;99.90;;;;;;26428667;22;20190;-77
2022/05/26 23:24:02;;;;;;;0.20;0.10;;;22.20;99.90;;;;;;26426456;22;20209;-76
2022/05/26 23:34:07;;;;;;;0.20;0.00;;;22.40;99.90;;;;;;26428936;22;20173;-76
2022/05/26 23:44:11;;;;;;;0.20;0.00;;;22.50;99.90;;;;;;26405864;22;20182;-75
2022/05/26 23:54:16;;;;;;;0.20;0.10;;;22.50;99.90;;;;;;26406756;22;20186;-77
